sensor_id;sensor_type;location;lat;lon;timestamp;P1;durP1;ratioP1;P2;durP2;ratioP2
79229;SDS011;68663;49.122;17.544;2023-04-16T00:02:21;3.50;;;1.52;;
79229;SDS011;68663;49.122;17.544;2023-04-16T00:04:48;5.50;;;1.88;;
79229;SDS011;68663;49.122;17.544;2023-04-16T00:07:14;3.03;;;1.80;;
79229;SDS011;68663;49.122;17.544;2023-04-16T00:09:39;3.13;;;1.90;;
79229;SDS011;68663;49.122;17.544;2023-04-16T00:12:04;2.97;;;1.60;;
79229;SDS011;68663;49.122;17.544;2023-04-16T00:14:30;2.30;;;1.48;;
79229;SDS011;68663;49.122;17.544;2023-04-16T00:16:56;2.83;;;1.65;;
79229;SDS011;68663;49.122;17.544;2023-04-16T00:19:21;3.20;;;1.83;;
79229;SDS011;68663;49.122;17.544;2023-04-16T00:21:47;3.05;;;1.75;;
79229;SDS011;68663;49.122;17.544;2023-04-16T00:24:12;3.67;;;1.70;;
79229;SDS011;68663;49.122;17.544;2023-04-16T00:26:37;4.05;;;1.90;;
79229;SDS011;68663;49.122;17.544;2023-04-16T00:29:03;3.30;;;1.90;;
79229;SDS011;68663;49.122;17.544;2023-04-16T00:31:32;3.20;;;1.60;;
79229;SDS011;68663;49.122;17.544;2023-04-16T00:33:58;3.90;;;1.63;;
79229;SDS011;68663;49.122;17.544;2023-04-16T00:36:23;4.18;;;1.80;;
79229;SDS011;68663;49.122;17.544;2023-04-16T00:38:51;4.13;;;2.20;;
79229;SDS011;68663;49.122;17.544;2023-04-16T00:41:16;3.78;;;1.80;;
79229;SDS011;68663;49.122;17.544;2023-04-16T00:43:42;4.37;;;1.83;;
79229;SDS011;68663;49.122;17.544;2023-04-16T00:46:07;4.10;;;1.70;;
79229;SDS011;68663;49.122;17.544;2023-04-16T00:48:33;3.15;;;1.65;;
79229;SDS011;68663;49.122;17.544;2023-04-16T00:51:02;3.83;;;1.83;;
79229;SDS011;68663;49.122;17.544;2023-04-16T00:53:29;3.95;;;1.60;;
79229;SDS011;68663;49.122;17.544;2023-04-16T00:55:55;4.85;;;1.70;;
79229;SDS011;68663;49.122;17.544;2023-04-16T00:58:22;2.40;;;1.75;;
79229;SDS011;68663;49.122;17.544;2023-04-16T01:00:48;3.22;;;1.70;;
79229;SDS011;68663;49.122;17.544;2023-04-16T01:03:13;3.72;;;1.55;;
79229;SDS011;68663;49.122;17.544;2023-04-16T01:05:38;4.05;;;1.60;;
79229;SDS011;68663;49.122;17.544;2023-04-16T01:08:37;2.20;;;1.33;;
79229;SDS011;68663;49.122;17.544;2023-04-16T01:10:55;3.50;;;1.60;;
79229;SDS011;68663;49.122;17.544;2023-04-16T01:13:21;3.30;;;1.75;;
79229;SDS011;68663;49.122;17.544;2023-04-16T01:15:46;2.05;;;1.60;;
79229;SDS011;68663;49.122;17.544;2023-04-16T01:18:13;2.55;;;1.52;;
79229;SDS011;68663;49.122;17.544;2023-04-16T01:20:39;3.30;;;2.00;;
79229;SDS011;68663;49.122;17.544;2023-04-16T01:23:05;3.90;;;1.60;;
79229;SDS011;68663;49.122;17.544;2023-04-16T01:25:30;3.87;;;2.10;;
79229;SDS011;68663;49.122;17.544;2023-04-16T01:27:56;2.95;;;1.50;;
79229;SDS011;68663;49.122;17.544;2023-04-16T01:30:23;1.60;;;1.23;;
79229;SDS011;68663;49.122;17.544;2023-04-16T01:32:48;2.33;;;1.45;;
79229;SDS011;68663;49.122;17.544;2023-04-16T01:35:14;2.20;;;1.70;;
79229;SDS011;68663;49.122;17.544;2023-04-16T01:37:39;2.75;;;1.67;;
79229;SDS011;68663;49.122;17.544;2023-04-16T01:40:05;2.95;;;1.50;;
79229;SDS011;68663;49.122;17.544;2023-04-16T01:42:31;2.65;;;1.48;;
79229;SDS011;68663;49.122;17.544;2023-04-16T01:44:56;3.97;;;1.95;;
79229;SDS011;68663;49.122;17.544;2023-04-16T01:47:21;1.77;;;1.33;;
79229;SDS011;68663;49.122;17.544;2023-04-16T01:49:47;3.53;;;1.70;;
79229;SDS011;68663;49.122;17.544;2023-04-16T01:52:12;1.95;;;1.50;;
79229;SDS011;68663;49.122;17.544;2023-04-16T01:54:38;2.47;;;1.70;;
79229;SDS011;68663;49.122;17.544;2023-04-16T01:57:03;2.63;;;1.53;;
79229;SDS011;68663;49.122;17.544;2023-04-16T01:59:28;4.43;;;1.60;;
79229;SDS011;68663;49.122;17.544;2023-04-16T02:01:54;2.67;;;1.20;;
79229;SDS011;68663;49.122;17.544;2023-04-16T02:04:20;2.28;;;1.35;;
79229;SDS011;68663;49.122;17.544;2023-04-16T02:06:45;1.88;;;1.38;;
79229;SDS011;68663;49.122;17.544;2023-04-16T02:09:10;1.95;;;1.42;;
79229;SDS011;68663;49.122;17.544;2023-04-16T02:11:36;1.90;;;1.27;;
79229;SDS011;68663;49.122;17.544;2023-04-16T02:14:01;2.67;;;1.60;;
79229;SDS011;68663;49.122;17.544;2023-04-16T02:16:26;3.10;;;1.90;;
79229;SDS011;68663;49.122;17.544;2023-04-16T02:18:52;2.07;;;1.50;;
79229;SDS011;68663;49.122;17.544;2023-04-16T02:21:17;1.90;;;1.27;;
79229;SDS011;68663;49.122;17.544;2023-04-16T02:23:44;1.70;;;1.25;;
79229;SDS011;68663;49.122;17.544;2023-04-16T02:26:11;2.78;;;1.23;;
79229;SDS011;68663;49.122;17.544;2023-04-16T02:28:37;2.20;;;1.40;;
79229;SDS011;68663;49.122;17.544;2023-04-16T02:31:03;2.47;;;1.40;;
79229;SDS011;68663;49.122;17.544;2023-04-16T02:33:29;1.67;;;1.33;;
79229;SDS011;68663;49.122;17.544;2023-04-16T02:35:55;1.40;;;1.15;;
79229;SDS011;68663;49.122;17.544;2023-04-16T02:38:21;3.03;;;1.50;;
79229;SDS011;68663;49.122;17.544;2023-04-16T02:40:46;3.93;;;1.53;;
79229;SDS011;68663;49.122;17.544;2023-04-16T02:43:12;2.05;;;1.60;;
79229;SDS011;68663;49.122;17.544;2023-04-16T02:45:37;2.00;;;1.30;;
79229;SDS011;68663;49.122;17.544;2023-04-16T02:48:03;2.72;;;1.77;;
79229;SDS011;68663;49.122;17.544;2023-04-16T02:50:28;2.92;;;1.50;;
79229;SDS011;68663;49.122;17.544;2023-04-16T02:52:54;2.00;;;1.23;;
79229;SDS011;68663;49.122;17.544;2023-04-16T02:55:19;1.70;;;1.30;;
79229;SDS011;68663;49.122;17.544;2023-04-16T02:57:45;1.52;;;1.25;;
79229;SDS011;68663;49.122;17.544;2023-04-16T03:00:10;2.03;;;1.53;;
79229;SDS011;68663;49.122;17.544;2023-04-16T03:02:36;2.08;;;1.40;;
79229;SDS011;68663;49.122;17.544;2023-04-16T03:05:01;2.40;;;1.50;;
79229;SDS011;68663;49.122;17.544;2023-04-16T03:07:27;2.67;;;1.50;;
79229;SDS011;68663;49.122;17.544;2023-04-16T03:09:52;1.93;;;1.33;;
79229;SDS011;68663;49.122;17.544;2023-04-16T03:12:18;2.00;;;1.33;;
79229;SDS011;68663;49.122;17.544;2023-04-16T03:14:43;1.53;;;1.30;;
79229;SDS011;68663;49.122;17.544;2023-04-16T03:17:08;2.37;;;1.40;;
79229;SDS011;68663;49.122;17.544;2023-04-16T03:19:34;2.37;;;1.40;;
79229;SDS011;68663;49.122;17.544;2023-04-16T03:21:59;2.20;;;1.40;;
79229;SDS011;68663;49.122;17.544;2023-04-16T03:24:24;2.50;;;1.63;;
79229;SDS011;68663;49.122;17.544;2023-04-16T03:26:50;1.63;;;1.33;;
79229;SDS011;68663;49.122;17.544;2023-04-16T03:29:15;2.00;;;1.45;;
79229;SDS011;68663;49.122;17.544;2023-04-16T03:31:40;5.50;;;1.70;;
79229;SDS011;68663;49.122;17.544;2023-04-16T03:34:06;1.80;;;1.20;;
79229;SDS011;68663;49.122;17.544;2023-04-16T03:36:31;2.53;;;1.60;;
79229;SDS011;68663;49.122;17.544;2023-04-16T03:38:57;1.80;;;1.35;;
79229;SDS011;68663;49.122;17.544;2023-04-16T03:41:22;3.83;;;1.52;;
79229;SDS011;68663;49.122;17.544;2023-04-16T03:43:48;4.03;;;1.45;;
79229;SDS011;68663;49.122;17.544;2023-04-16T03:46:13;2.57;;;1.50;;
79229;SDS011;68663;49.122;17.544;2023-04-16T03:48:38;2.30;;;1.50;;
79229;SDS011;68663;49.122;17.544;2023-04-16T03:51:04;1.80;;;1.60;;
79229;SDS011;68663;49.122;17.544;2023-04-16T03:53:29;2.53;;;1.70;;
79229;SDS011;68663;49.122;17.544;2023-04-16T03:55:55;1.60;;;1.30;;
79229;SDS011;68663;49.122;17.544;2023-04-16T03:58:20;2.07;;;1.40;;
79229;SDS011;68663;49.122;17.544;2023-04-16T04:00:45;2.20;;;1.40;;
79229;SDS011;68663;49.122;17.544;2023-04-16T04:03:12;2.08;;;1.48;;
79229;SDS011;68663;49.122;17.544;2023-04-16T04:05:41;1.98;;;1.23;;
79229;SDS011;68663;49.122;17.544;2023-04-16T04:08:07;2.10;;;1.50;;
79229;SDS011;68663;49.122;17.544;2023-04-16T04:10:33;2.25;;;1.50;;
79229;SDS011;68663;49.122;17.544;2023-04-16T04:13:00;1.90;;;1.40;;
79229;SDS011;68663;49.122;17.544;2023-04-16T04:15:27;2.28;;;1.65;;
79229;SDS011;68663;49.122;17.544;2023-04-16T04:17:52;1.77;;;1.38;;
79229;SDS011;68663;49.122;17.544;2023-04-16T04:20:17;1.73;;;1.33;;
79229;SDS011;68663;49.122;17.544;2023-04-16T04:22:43;2.40;;;1.45;;
79229;SDS011;68663;49.122;17.544;2023-04-16T04:25:08;1.73;;;1.40;;
79229;SDS011;68663;49.122;17.544;2023-04-16T04:27:34;1.33;;;1.23;;
79229;SDS011;68663;49.122;17.544;2023-04-16T04:30:00;2.15;;;1.50;;
79229;SDS011;68663;49.122;17.544;2023-04-16T04:32:26;2.03;;;1.30;;
79229;SDS011;68663;49.122;17.544;2023-04-16T04:34:51;2.53;;;1.43;;
79229;SDS011;68663;49.122;17.544;2023-04-16T04:37:17;3.47;;;1.30;;
79229;SDS011;68663;49.122;17.544;2023-04-16T04:39:42;1.70;;;1.47;;
79229;SDS011;68663;49.122;17.544;2023-04-16T04:42:08;1.73;;;1.10;;
79229;SDS011;68663;49.122;17.544;2023-04-16T04:44:33;1.48;;;1.25;;
79229;SDS011;68663;49.122;17.544;2023-04-16T04:46:58;1.63;;;1.30;;
79229;SDS011;68663;49.122;17.544;2023-04-16T04:49:24;2.15;;;1.58;;
79229;SDS011;68663;49.122;17.544;2023-04-16T04:51:49;1.55;;;1.30;;
79229;SDS011;68663;49.122;17.544;2023-04-16T04:54:15;2.00;;;1.45;;
79229;SDS011;68663;49.122;17.544;2023-04-16T04:56:40;3.63;;;1.42;;
79229;SDS011;68663;49.122;17.544;2023-04-16T04:59:06;1.55;;;1.10;;
79229;SDS011;68663;49.122;17.544;2023-04-16T05:01:31;2.30;;;1.40;;
79229;SDS011;68663;49.122;17.544;2023-04-16T05:03:56;3.43;;;1.57;;
79229;SDS011;68663;49.122;17.544;2023-04-16T05:06:22;2.23;;;1.20;;
79229;SDS011;68663;49.122;17.544;2023-04-16T05:08:47;2.33;;;1.50;;
79229;SDS011;68663;49.122;17.544;2023-04-16T05:11:12;1.57;;;1.20;;
79229;SDS011;68663;49.122;17.544;2023-04-16T05:13:38;1.90;;;1.35;;
79229;SDS011;68663;49.122;17.544;2023-04-16T05:16:04;3.45;;;1.25;;
79229;SDS011;68663;49.122;17.544;2023-04-16T05:18:29;1.80;;;1.30;;
79229;SDS011;68663;49.122;17.544;2023-04-16T05:20:56;2.35;;;1.42;;
79229;SDS011;68663;49.122;17.544;2023-04-16T05:23:22;2.20;;;1.67;;
79229;SDS011;68663;49.122;17.544;2023-04-16T05:25:47;2.47;;;1.38;;
79229;SDS011;68663;49.122;17.544;2023-04-16T05:28:12;1.70;;;1.47;;
79229;SDS011;68663;49.122;17.544;2023-04-16T05:30:38;1.90;;;1.40;;
79229;SDS011;68663;49.122;17.544;2023-04-16T05:33:03;3.07;;;1.47;;
79229;SDS011;68663;49.122;17.544;2023-04-16T05:35:28;2.17;;;1.60;;
79229;SDS011;68663;49.122;17.544;2023-04-16T05:37:53;1.33;;;1.10;;
79229;SDS011;68663;49.122;17.544;2023-04-16T05:40:19;2.10;;;1.55;;
79229;SDS011;68663;49.122;17.544;2023-04-16T05:42:44;3.55;;;1.92;;
79229;SDS011;68663;49.122;17.544;2023-04-16T05:45:10;5.80;;;1.90;;
79229;SDS011;68663;49.122;17.544;2023-04-16T05:47:35;4.40;;;2.28;;
79229;SDS011;68663;49.122;17.544;2023-04-16T05:50:01;5.53;;;1.93;;
79229;SDS011;68663;49.122;17.544;2023-04-16T05:52:26;5.70;;;1.97;;
79229;SDS011;68663;49.122;17.544;2023-04-16T05:54:51;4.87;;;2.20;;
79229;SDS011;68663;49.122;17.544;2023-04-16T05:57:17;4.53;;;2.57;;
79229;SDS011;68663;49.122;17.544;2023-04-16T05:59:42;9.00;;;2.20;;
79229;SDS011;68663;49.122;17.544;2023-04-16T06:02:07;7.00;;;2.23;;
79229;SDS011;68663;49.122;17.544;2023-04-16T06:04:33;6.50;;;1.87;;
79229;SDS011;68663;49.122;17.544;2023-04-16T06:06:59;5.38;;;2.05;;
79229;SDS011;68663;49.122;17.544;2023-04-16T06:09:25;6.00;;;2.53;;
79229;SDS011;68663;49.122;17.544;2023-04-16T06:11:50;5.83;;;2.23;;
79229;SDS011;68663;49.122;17.544;2023-04-16T06:14:16;7.23;;;2.47;;
79229;SDS011;68663;49.122;17.544;2023-04-16T06:16:41;3.40;;;2.00;;
79229;SDS011;68663;49.122;17.544;2023-04-16T06:19:06;5.17;;;2.00;;
79229;SDS011;68663;49.122;17.544;2023-04-16T06:21:32;4.33;;;1.87;;
79229;SDS011;68663;49.122;17.544;2023-04-16T06:23:57;7.22;;;2.13;;
79229;SDS011;68663;49.122;17.544;2023-04-16T06:26:22;5.85;;;2.40;;
79229;SDS011;68663;49.122;17.544;2023-04-16T06:28:48;10.70;;;2.07;;
79229;SDS011;68663;49.122;17.544;2023-04-16T06:31:14;4.72;;;1.63;;
79229;SDS011;68663;49.122;17.544;2023-04-16T06:33:39;6.95;;;2.13;;
79229;SDS011;68663;49.122;17.544;2023-04-16T06:36:05;6.82;;;1.98;;
79229;SDS011;68663;49.122;17.544;2023-04-16T06:38:31;7.68;;;2.05;;
79229;SDS011;68663;49.122;17.544;2023-04-16T06:40:56;7.30;;;3.07;;
79229;SDS011;68663;49.122;17.544;2023-04-16T06:43:23;20.23;;;4.75;;
79229;SDS011;68663;49.122;17.544;2023-04-16T06:45:50;22.83;;;5.82;;
79229;SDS011;68663;49.122;17.544;2023-04-16T06:48:16;26.13;;;6.30;;
79229;SDS011;68663;49.122;17.544;2023-04-16T06:50:41;24.17;;;5.63;;
79229;SDS011;68663;49.122;17.544;2023-04-16T06:53:06;19.73;;;5.15;;
79229;SDS011;68663;49.122;17.544;2023-04-16T06:55:32;22.95;;;5.78;;
79229;SDS011;68663;49.122;17.544;2023-04-16T06:57:57;20.30;;;5.67;;
79229;SDS011;68663;49.122;17.544;2023-04-16T07:00:23;24.63;;;6.40;;
79229;SDS011;68663;49.122;17.544;2023-04-16T07:02:48;25.07;;;6.07;;
79229;SDS011;68663;49.122;17.544;2023-04-16T07:05:13;26.80;;;5.97;;
79229;SDS011;68663;49.122;17.544;2023-04-16T07:07:39;26.07;;;5.80;;
79229;SDS011;68663;49.122;17.544;2023-04-16T07:10:04;24.00;;;6.75;;
79229;SDS011;68663;49.122;17.544;2023-04-16T07:12:30;18.10;;;6.32;;
79229;SDS011;68663;49.122;17.544;2023-04-16T07:14:57;23.83;;;6.00;;
79229;SDS011;68663;49.122;17.544;2023-04-16T07:17:22;20.50;;;6.20;;
79229;SDS011;68663;49.122;17.544;2023-04-16T07:19:47;19.43;;;6.00;;
79229;SDS011;68663;49.122;17.544;2023-04-16T07:22:13;9.35;;;4.47;;
79229;SDS011;68663;49.122;17.544;2023-04-16T07:24:38;7.67;;;4.20;;
79229;SDS011;68663;49.122;17.544;2023-04-16T07:27:03;7.10;;;3.97;;
79229;SDS011;68663;49.122;17.544;2023-04-16T07:29:29;6.32;;;3.92;;
79229;SDS011;68663;49.122;17.544;2023-04-16T07:31:54;4.53;;;3.47;;
79229;SDS011;68663;49.122;17.544;2023-04-16T07:34:20;5.22;;;3.75;;
79229;SDS011;68663;49.122;17.544;2023-04-16T07:36:45;4.18;;;3.25;;
79229;SDS011;68663;49.122;17.544;2023-04-16T07:39:10;4.67;;;3.40;;
79229;SDS011;68663;49.122;17.544;2023-04-16T07:41:37;5.57;;;3.65;;
79229;SDS011;68663;49.122;17.544;2023-04-16T07:44:04;4.30;;;3.38;;
79229;SDS011;68663;49.122;17.544;2023-04-16T07:46:30;4.40;;;3.17;;
79229;SDS011;68663;49.122;17.544;2023-04-16T07:48:55;4.72;;;3.58;;
79229;SDS011;68663;49.122;17.544;2023-04-16T07:51:21;4.13;;;3.08;;
79229;SDS011;68663;49.122;17.544;2023-04-16T07:53:47;5.47;;;3.15;;
79229;SDS011;68663;49.122;17.544;2023-04-16T07:56:13;4.05;;;3.13;;
79229;SDS011;68663;49.122;17.544;2023-04-16T07:58:38;6.03;;;3.53;;
79229;SDS011;68663;49.122;17.544;2023-04-16T08:01:04;12.20;;;4.93;;
79229;SDS011;68663;49.122;17.544;2023-04-16T08:03:29;9.77;;;4.30;;
79229;SDS011;68663;49.122;17.544;2023-04-16T08:05:55;6.18;;;3.42;;
79229;SDS011;68663;49.122;17.544;2023-04-16T08:08:20;3.92;;;2.90;;
79229;SDS011;68663;49.122;17.544;2023-04-16T08:10:46;5.35;;;3.40;;
79229;SDS011;68663;49.122;17.544;2023-04-16T08:13:11;6.68;;;3.65;;
79229;SDS011;68663;49.122;17.544;2023-04-16T08:15:37;5.47;;;3.58;;
79229;SDS011;68663;49.122;17.544;2023-04-16T08:18:02;4.50;;;3.10;;
79229;SDS011;68663;49.122;17.544;2023-04-16T08:20:29;8.20;;;3.22;;
79229;SDS011;68663;49.122;17.544;2023-04-16T08:22:55;4.13;;;3.13;;
79229;SDS011;68663;49.122;17.544;2023-04-16T08:25:20;4.87;;;3.00;;
79229;SDS011;68663;49.122;17.544;2023-04-16T08:27:48;5.35;;;3.30;;
79229;SDS011;68663;49.122;17.544;2023-04-16T08:30:14;5.13;;;3.38;;
79229;SDS011;68663;49.122;17.544;2023-04-16T08:32:41;3.75;;;2.30;;
79229;SDS011;68663;49.122;17.544;2023-04-16T08:35:07;4.43;;;2.70;;
79229;SDS011;68663;49.122;17.544;2023-04-16T08:37:32;4.22;;;2.70;;
79229;SDS011;68663;49.122;17.544;2023-04-16T08:39:58;3.87;;;2.70;;
79229;SDS011;68663;49.122;17.544;2023-04-16T08:42:28;3.53;;;2.70;;
79229;SDS011;68663;49.122;17.544;2023-04-16T08:45:05;3.55;;;2.67;;
79229;SDS011;68663;49.122;17.544;2023-04-16T08:47:35;5.43;;;2.97;;
79229;SDS011;68663;49.122;17.544;2023-04-16T08:50:04;4.28;;;2.35;;
79229;SDS011;68663;49.122;17.544;2023-04-16T08:52:30;5.18;;;3.22;;
79229;SDS011;68663;49.122;17.544;2023-04-16T08:57:37;4.47;;;2.70;;
79229;SDS011;68663;49.122;17.544;2023-04-16T09:00:06;3.70;;;2.72;;
79229;SDS011;68663;49.122;17.544;2023-04-16T09:02:33;3.45;;;2.88;;
79229;SDS011;68663;49.122;17.544;2023-04-16T09:04:59;6.13;;;2.58;;
79229;SDS011;68663;49.122;17.544;2023-04-16T09:07:27;5.80;;;2.67;;
79229;SDS011;68663;49.122;17.544;2023-04-16T09:09:53;4.13;;;2.72;;
79229;SDS011;68663;49.122;17.544;2023-04-16T09:12:22;3.70;;;2.50;;
79229;SDS011;68663;49.122;17.544;2023-04-16T09:14:51;5.57;;;2.92;;
79229;SDS011;68663;49.122;17.544;2023-04-16T09:17:17;3.10;;;2.35;;
79229;SDS011;68663;49.122;17.544;2023-04-16T09:19:43;5.47;;;2.60;;
79229;SDS011;68663;49.122;17.544;2023-04-16T09:22:09;5.20;;;2.90;;
79229;SDS011;68663;49.122;17.544;2023-04-16T09:24:35;7.40;;;2.78;;
79229;SDS011;68663;49.122;17.544;2023-04-16T09:27:02;6.75;;;3.35;;
79229;SDS011;68663;49.122;17.544;2023-04-16T09:29:38;6.03;;;2.65;;
79229;SDS011;68663;49.122;17.544;2023-04-16T09:32:05;10.13;;;2.83;;
79229;SDS011;68663;49.122;17.544;2023-04-16T09:34:32;9.30;;;2.67;;
79229;SDS011;68663;49.122;17.544;2023-04-16T09:37:14;4.03;;;2.63;;
79229;SDS011;68663;49.122;17.544;2023-04-16T09:39:43;3.58;;;2.33;;
79229;SDS011;68663;49.122;17.544;2023-04-16T09:42:09;5.82;;;2.78;;
79229;SDS011;68663;49.122;17.544;2023-04-16T09:44:36;4.72;;;2.65;;
79229;SDS011;68663;49.122;17.544;2023-04-16T09:47:09;5.18;;;2.67;;
79229;SDS011;68663;49.122;17.544;2023-04-16T09:49:34;5.32;;;2.70;;
79229;SDS011;68663;49.122;17.544;2023-04-16T09:52:08;3.95;;;2.35;;
79229;SDS011;68663;49.122;17.544;2023-04-16T09:54:38;3.47;;;2.42;;
79229;SDS011;68663;49.122;17.544;2023-04-16T09:57:10;5.55;;;2.88;;
79229;SDS011;68663;49.122;17.544;2023-04-16T09:59:35;8.75;;;3.20;;
79229;SDS011;68663;49.122;17.544;2023-04-16T10:02:01;4.88;;;2.95;;
79229;SDS011;68663;49.122;17.544;2023-04-16T10:04:26;7.27;;;3.67;;
79229;SDS011;68663;49.122;17.544;2023-04-16T10:07:04;7.33;;;3.43;;
79229;SDS011;68663;49.122;17.544;2023-04-16T10:09:31;6.15;;;3.28;;
79229;SDS011;68663;49.122;17.544;2023-04-16T10:12:00;5.93;;;3.15;;
79229;SDS011;68663;49.122;17.544;2023-04-16T10:14:26;5.57;;;3.03;;
79229;SDS011;68663;49.122;17.544;2023-04-16T10:16:52;5.47;;;3.10;;
79229;SDS011;68663;49.122;17.544;2023-04-16T10:19:17;7.40;;;2.67;;
79229;SDS011;68663;49.122;17.544;2023-04-16T10:21:44;4.75;;;2.83;;
79229;SDS011;68663;49.122;17.544;2023-04-16T10:24:10;7.55;;;2.92;;
79229;SDS011;68663;49.122;17.544;2023-04-16T10:26:36;6.07;;;3.55;;
79229;SDS011;68663;49.122;17.544;2023-04-16T10:29:05;10.98;;;3.90;;
79229;SDS011;68663;49.122;17.544;2023-04-16T10:31:31;20.05;;;4.68;;
79229;SDS011;68663;49.122;17.544;2023-04-16T10:33:57;14.60;;;4.50;;
79229;SDS011;68663;49.122;17.544;2023-04-16T10:36:23;8.55;;;4.65;;
79229;SDS011;68663;49.122;17.544;2023-04-16T10:38:51;5.75;;;3.58;;
79229;SDS011;68663;49.122;17.544;2023-04-16T10:41:20;8.32;;;4.97;;
79229;SDS011;68663;49.122;17.544;2023-04-16T10:43:45;7.25;;;4.15;;
79229;SDS011;68663;49.122;17.544;2023-04-16T10:49:15;7.55;;;3.95;;
79229;SDS011;68663;49.122;17.544;2023-04-16T10:51:51;5.65;;;2.70;;
79229;SDS011;68663;49.122;17.544;2023-04-16T10:54:19;6.63;;;3.10;;
79229;SDS011;68663;49.122;17.544;2023-04-16T10:56:47;8.57;;;3.10;;
79229;SDS011;68663;49.122;17.544;2023-04-16T10:59:16;6.28;;;3.17;;
79229;SDS011;68663;49.122;17.544;2023-04-16T11:01:51;8.63;;;3.28;;
79229;SDS011;68663;49.122;17.544;2023-04-16T11:09:53;10.30;;;3.20;;
79229;SDS011;68663;49.122;17.544;2023-04-16T11:12:38;6.30;;;2.25;;
79229;SDS011;68663;49.122;17.544;2023-04-16T11:15:06;4.65;;;2.65;;
79229;SDS011;68663;49.122;17.544;2023-04-16T11:17:39;4.32;;;2.47;;
79229;SDS011;68663;49.122;17.544;2023-04-16T11:20:17;4.38;;;2.50;;
79229;SDS011;68663;49.122;17.544;2023-04-16T11:22:43;7.47;;;2.47;;
79229;SDS011;68663;49.122;17.544;2023-04-16T11:25:11;7.15;;;2.72;;
79229;SDS011;68663;49.122;17.544;2023-04-16T11:27:37;6.27;;;2.87;;
79229;SDS011;68663;49.122;17.544;2023-04-16T11:30:06;6.55;;;2.80;;
79229;SDS011;68663;49.122;17.544;2023-04-16T11:32:34;4.80;;;3.08;;
79229;SDS011;68663;49.122;17.544;2023-04-16T11:35:01;3.75;;;2.60;;
79229;SDS011;68663;49.122;17.544;2023-04-16T11:39:58;10.82;;;3.10;;
79229;SDS011;68663;49.122;17.544;2023-04-16T11:42:25;5.53;;;2.72;;
79229;SDS011;68663;49.122;17.544;2023-04-16T11:44:54;7.65;;;3.13;;
79229;SDS011;68663;49.122;17.544;2023-04-16T11:47:23;7.38;;;3.00;;
79229;SDS011;68663;49.122;17.544;2023-04-16T11:49:49;9.18;;;4.53;;
79229;SDS011;68663;49.122;17.544;2023-04-16T11:52:31;7.88;;;3.40;;
79229;SDS011;68663;49.122;17.544;2023-04-16T11:54:57;5.50;;;3.00;;
79229;SDS011;68663;49.122;17.544;2023-04-16T11:57:27;5.70;;;2.95;;
79229;SDS011;68663;49.122;17.544;2023-04-16T11:59:57;5.47;;;2.75;;
79229;SDS011;68663;49.122;17.544;2023-04-16T12:02:33;7.90;;;3.30;;
79229;SDS011;68663;49.122;17.544;2023-04-16T12:05:00;6.00;;;2.38;;
79229;SDS011;68663;49.122;17.544;2023-04-16T12:07:27;5.47;;;3.03;;
79229;SDS011;68663;49.122;17.544;2023-04-16T12:10:03;8.32;;;2.95;;
79229;SDS011;68663;49.122;17.544;2023-04-16T12:12:30;5.68;;;2.83;;
79229;SDS011;68663;49.122;17.544;2023-04-16T12:14:56;9.18;;;2.63;;
79229;SDS011;68663;49.122;17.544;2023-04-16T12:17:24;5.15;;;2.60;;
79229;SDS011;68663;49.122;17.544;2023-04-16T12:19:57;6.05;;;2.78;;
79229;SDS011;68663;49.122;17.544;2023-04-16T12:22:30;5.70;;;3.08;;
79229;SDS011;68663;49.122;17.544;2023-04-16T12:25:00;6.10;;;2.47;;
79229;SDS011;68663;49.122;17.544;2023-04-16T12:30:09;9.43;;;2.83;;
79229;SDS011;68663;49.122;17.544;2023-04-16T12:32:35;7.70;;;2.70;;
79229;SDS011;68663;49.122;17.544;2023-04-16T12:35:00;7.43;;;2.88;;
79229;SDS011;68663;49.122;17.544;2023-04-16T12:37:26;7.53;;;2.67;;
79229;SDS011;68663;49.122;17.544;2023-04-16T12:39:52;6.40;;;3.00;;
79229;SDS011;68663;49.122;17.544;2023-04-16T12:42:17;8.07;;;2.90;;
79229;SDS011;68663;49.122;17.544;2023-04-16T12:44:43;5.27;;;2.63;;
79229;SDS011;68663;49.122;17.544;2023-04-16T12:47:08;6.03;;;2.27;;
79229;SDS011;68663;49.122;17.544;2023-04-16T12:49:34;7.22;;;2.72;;
79229;SDS011;68663;49.122;17.544;2023-04-16T12:52:00;6.57;;;2.35;;
79229;SDS011;68663;49.122;17.544;2023-04-16T12:54:26;6.88;;;3.10;;
79229;SDS011;68663;49.122;17.544;2023-04-16T12:59:20;5.80;;;2.70;;
79229;SDS011;68663;49.122;17.544;2023-04-16T13:01:45;8.73;;;2.80;;
79229;SDS011;68663;49.122;17.544;2023-04-16T13:04:10;10.87;;;2.87;;
79229;SDS011;68663;49.122;17.544;2023-04-16T13:06:36;6.72;;;2.70;;
79229;SDS011;68663;49.122;17.544;2023-04-16T13:09:02;5.75;;;2.50;;
79229;SDS011;68663;49.122;17.544;2023-04-16T13:11:28;3.50;;;2.20;;
79229;SDS011;68663;49.122;17.544;2023-04-16T13:13:54;6.07;;;2.53;;
79229;SDS011;68663;49.122;17.544;2023-04-16T13:16:19;7.90;;;2.58;;
79229;SDS011;68663;49.122;17.544;2023-04-16T13:18:45;4.65;;;2.28;;
79229;SDS011;68663;49.122;17.544;2023-04-16T13:21:10;4.35;;;2.78;;
79229;SDS011;68663;49.122;17.544;2023-04-16T13:23:36;5.20;;;2.42;;
79229;SDS011;68663;49.122;17.544;2023-04-16T13:26:01;4.05;;;2.33;;
79229;SDS011;68663;49.122;17.544;2023-04-16T13:28:27;7.25;;;2.55;;
79229;SDS011;68663;49.122;17.544;2023-04-16T13:30:52;9.73;;;2.43;;
79229;SDS011;68663;49.122;17.544;2023-04-16T13:33:18;7.22;;;2.92;;
79229;SDS011;68663;49.122;17.544;2023-04-16T13:35:44;9.60;;;3.00;;
79229;SDS011;68663;49.122;17.544;2023-04-16T13:38:10;7.40;;;2.65;;
79229;SDS011;68663;49.122;17.544;2023-04-16T13:40:36;5.50;;;2.40;;
79229;SDS011;68663;49.122;17.544;2023-04-16T13:43:01;4.97;;;2.08;;
79229;SDS011;68663;49.122;17.544;2023-04-16T13:45:27;12.85;;;2.70;;
79229;SDS011;68663;49.122;17.544;2023-04-16T13:47:53;4.40;;;2.63;;
79229;SDS011;68663;49.122;17.544;2023-04-16T13:50:18;7.00;;;2.63;;
79229;SDS011;68663;49.122;17.544;2023-04-16T13:52:44;5.05;;;2.22;;
79229;SDS011;68663;49.122;17.544;2023-04-16T13:55:09;4.63;;;2.10;;
79229;SDS011;68663;49.122;17.544;2023-04-16T13:57:38;6.90;;;2.65;;
79229;SDS011;68663;49.122;17.544;2023-04-16T14:00:04;5.35;;;2.65;;
79229;SDS011;68663;49.122;17.544;2023-04-16T14:02:31;4.93;;;2.35;;
79229;SDS011;68663;49.122;17.544;2023-04-16T14:04:56;4.40;;;2.28;;
79229;SDS011;68663;49.122;17.544;2023-04-16T14:07:21;6.47;;;2.00;;
79229;SDS011;68663;49.122;17.544;2023-04-16T14:09:50;6.50;;;2.50;;
79229;SDS011;68663;49.122;17.544;2023-04-16T14:12:16;5.57;;;2.47;;
79229;SDS011;68663;49.122;17.544;2023-04-16T14:14:41;7.37;;;2.47;;
79229;SDS011;68663;49.122;17.544;2023-04-16T14:17:07;5.78;;;2.30;;
79229;SDS011;68663;49.122;17.544;2023-04-16T14:19:32;3.10;;;2.33;;
79229;SDS011;68663;49.122;17.544;2023-04-16T14:21:57;8.47;;;2.60;;
79229;SDS011;68663;49.122;17.544;2023-04-16T14:24:23;5.40;;;2.50;;
79229;SDS011;68663;49.122;17.544;2023-04-16T14:26:48;4.50;;;2.07;;
79229;SDS011;68663;49.122;17.544;2023-04-16T14:29:13;5.43;;;2.40;;
79229;SDS011;68663;49.122;17.544;2023-04-16T14:31:39;5.78;;;2.45;;
79229;SDS011;68663;49.122;17.544;2023-04-16T14:34:05;4.85;;;2.00;;
79229;SDS011;68663;49.122;17.544;2023-04-16T14:36:30;6.25;;;2.35;;
79229;SDS011;68663;49.122;17.544;2023-04-16T14:38:56;6.13;;;2.55;;
79229;SDS011;68663;49.122;17.544;2023-04-16T14:41:21;7.27;;;2.10;;
79229;SDS011;68663;49.122;17.544;2023-04-16T14:43:47;4.50;;;2.60;;
79229;SDS011;68663;49.122;17.544;2023-04-16T14:46:12;5.33;;;2.07;;
79229;SDS011;68663;49.122;17.544;2023-04-16T14:48:41;8.10;;;2.28;;